sensor_id;sensor_type;location;lat;lon;timestamp;P1;durP1;ratioP1;P2;durP2;ratioP2
25667;SDS011;18003;-33.830;151.202;2023-01-31T00:00:16;6.03;;;2.72;;
25667;SDS011;18003;-33.830;151.202;2023-01-31T00:02:46;4.90;;;2.97;;
25667;SDS011;18003;-33.830;151.202;2023-01-31T00:05:17;4.15;;;2.72;;
25667;SDS011;18003;-33.830;151.202;2023-01-31T00:07:47;8.00;;;2.72;;
25667;SDS011;18003;-33.830;151.202;2023-01-31T00:10:17;5.33;;;2.62;;
25667;SDS011;18003;-33.830;151.202;2023-01-31T00:12:47;6.85;;;2.60;;
25667;SDS011;18003;-33.830;151.202;2023-01-31T00:15:17;5.05;;;2.60;;
25667;SDS011;18003;-33.830;151.202;2023-01-31T00:17:47;6.33;;;2.58;;
25667;SDS011;18003;-33.830;151.202;2023-01-31T00:20:17;7.37;;;2.80;;
25667;SDS011;18003;-33.830;151.202;2023-01-31T00:22:48;4.97;;;3.33;;
25667;SDS011;18003;-33.830;151.202;2023-01-31T00:27:47;7.50;;;2.95;;
25667;SDS011;18003;-33.830;151.202;2023-01-31T00:30:17;6.42;;;2.60;;
25667;SDS011;18003;-33.830;151.202;2023-01-31T00:32:47;6.28;;;2.90;;
25667;SDS011;18003;-33.830;151.202;2023-01-31T00:35:17;4.90;;;2.72;;
25667;SDS011;18003;-33.830;151.202;2023-01-31T00:37:47;6.08;;;2.50;;
25667;SDS011;18003;-33.830;151.202;2023-01-31T00:40:18;3.22;;;2.40;;
25667;SDS011;18003;-33.830;151.202;2023-01-31T00:42:48;5.30;;;2.22;;
25667;SDS011;18003;-33.830;151.202;2023-01-31T00:45:18;4.33;;;2.08;;
25667;SDS011;18003;-33.830;151.202;2023-01-31T00:47:48;3.80;;;2.20;;
25667;SDS011;18003;-33.830;151.202;2023-01-31T00:50:18;4.58;;;2.20;;
25667;SDS011;18003;-33.830;151.202;2023-01-31T00:52:48;4.28;;;2.10;;
25667;SDS011;18003;-33.830;151.202;2023-01-31T00:55:18;2.65;;;2.05;;
25667;SDS011;18003;-33.830;151.202;2023-01-31T00:57:48;3.60;;;2.33;;
25667;SDS011;18003;-33.830;151.202;2023-01-31T01:00:18;4.05;;;2.25;;
25667;SDS011;18003;-33.830;151.202;2023-01-31T01:02:48;5.58;;;2.58;;
25667;SDS011;18003;-33.830;151.202;2023-01-31T01:05:18;5.90;;;2.42;;
25667;SDS011;18003;-33.830;151.202;2023-01-31T01:07:48;3.77;;;2.30;;
25667;SDS011;18003;-33.830;151.202;2023-01-31T01:10:18;4.60;;;2.50;;
25667;SDS011;18003;-33.830;151.202;2023-01-31T01:12:49;2.95;;;2.65;;
25667;SDS011;18003;-33.830;151.202;2023-01-31T01:15:19;5.17;;;2.50;;
25667;SDS011;18003;-33.830;151.202;2023-01-31T01:17:49;5.90;;;2.62;;
25667;SDS011;18003;-33.830;151.202;2023-01-31T01:20:19;4.45;;;2.90;;
25667;SDS011;18003;-33.830;151.202;2023-01-31T01:22:49;6.15;;;2.45;;
25667;SDS011;18003;-33.830;151.202;2023-01-31T01:25:19;5.00;;;2.42;;
25667;SDS011;18003;-33.830;151.202;2023-01-31T01:27:50;4.07;;;2.30;;
25667;SDS011;18003;-33.830;151.202;2023-01-31T01:30:20;4.28;;;2.30;;
25667;SDS011;18003;-33.830;151.202;2023-01-31T01:32:50;4.08;;;2.33;;
25667;SDS011;18003;-33.830;151.202;2023-01-31T01:35:22;3.77;;;2.12;;
25667;SDS011;18003;-33.830;151.202;2023-01-31T01:37:52;4.30;;;2.55;;
25667;SDS011;18003;-33.830;151.202;2023-01-31T01:40:22;4.37;;;2.20;;
25667;SDS011;18003;-33.830;151.202;2023-01-31T01:42:52;2.87;;;2.10;;
25667;SDS011;18003;-33.830;151.202;2023-01-31T01:45:22;3.83;;;2.40;;
25667;SDS011;18003;-33.830;151.202;2023-01-31T01:47:52;4.45;;;2.20;;
25667;SDS011;18003;-33.830;151.202;2023-01-31T01:50:37;4.03;;;2.70;;
25667;SDS011;18003;-33.830;151.202;2023-01-31T01:53:08;4.20;;;2.70;;
25667;SDS011;18003;-33.830;151.202;2023-01-31T01:55:56;4.10;;;2.25;;
25667;SDS011;18003;-33.830;151.202;2023-01-31T01:58:32;4.40;;;2.60;;
25667;SDS011;18003;-33.830;151.202;2023-01-31T02:01:02;3.75;;;2.40;;
25667;SDS011;18003;-33.830;151.202;2023-01-31T02:03:33;7.83;;;2.27;;
25667;SDS011;18003;-33.830;151.202;2023-01-31T02:06:04;7.27;;;2.47;;
25667;SDS011;18003;-33.830;151.202;2023-01-31T02:08:35;8.23;;;2.55;;
25667;SDS011;18003;-33.830;151.202;2023-01-31T02:11:12;6.27;;;2.30;;
25667;SDS011;18003;-33.830;151.202;2023-01-31T02:13:41;4.58;;;2.40;;
25667;SDS011;18003;-33.830;151.202;2023-01-31T02:18:41;3.05;;;2.47;;
25667;SDS011;18003;-33.830;151.202;2023-01-31T02:24:20;3.80;;;2.47;;
25667;SDS011;18003;-33.830;151.202;2023-01-31T02:38:29;4.97;;;2.40;;
25667;SDS011;18003;-33.830;151.202;2023-01-31T02:41:00;3.98;;;2.12;;
25667;SDS011;18003;-33.830;151.202;2023-01-31T02:55:17;3.40;;;2.10;;
25667;SDS011;18003;-33.830;151.202;2023-01-31T02:58:08;6.72;;;2.40;;
25667;SDS011;18003;-33.830;151.202;2023-01-31T03:00:40;4.20;;;2.10;;
25667;SDS011;18003;-33.830;151.202;2023-01-31T03:03:18;2.98;;;2.20;;
25667;SDS011;18003;-33.830;151.202;2023-01-31T03:08:55;3.40;;;2.45;;
25667;SDS011;18003;-33.830;151.202;2023-01-31T03:11:24;4.78;;;2.12;;
25667;SDS011;18003;-33.830;151.202;2023-01-31T03:14:02;3.80;;;2.30;;
25667;SDS011;18003;-33.830;151.202;2023-01-31T03:17:11;3.40;;;2.30;;
25667;SDS011;18003;-33.830;151.202;2023-01-31T03:22:40;6.30;;;2.30;;
25667;SDS011;18003;-33.830;151.202;2023-01-31T03:25:15;5.78;;;2.20;;
25667;SDS011;18003;-33.830;151.202;2023-01-31T03:27:48;3.30;;;2.40;;
25667;SDS011;18003;-33.830;151.202;2023-01-31T03:30:21;3.12;;;2.08;;
25667;SDS011;18003;-33.830;151.202;2023-01-31T03:32:52;3.50;;;2.25;;
25667;SDS011;18003;-33.830;151.202;2023-01-31T03:35:24;3.35;;;2.17;;
25667;SDS011;18003;-33.830;151.202;2023-01-31T03:38:07;4.08;;;2.65;;
25667;SDS011;18003;-33.830;151.202;2023-01-31T03:40:45;4.83;;;2.40;;
25667;SDS011;18003;-33.830;151.202;2023-01-31T03:43:12;3.35;;;2.33;;
25667;SDS011;18003;-33.830;151.202;2023-01-31T03:45:56;2.45;;;2.25;;
25667;SDS011;18003;-33.830;151.202;2023-01-31T03:48:29;4.67;;;2.27;;
25667;SDS011;18003;-33.830;151.202;2023-01-31T03:50:58;4.75;;;2.17;;
25667;SDS011;18003;-33.830;151.202;2023-01-31T03:53:41;2.65;;;2.40;;
25667;SDS011;18003;-33.830;151.202;2023-01-31T03:56:12;2.10;;;1.90;;
25667;SDS011;18003;-33.830;151.202;2023-01-31T03:58:45;3.00;;;2.30;;
25667;SDS011;18003;-33.830;151.202;2023-01-31T04:01:19;2.00;;;1.90;;
25667;SDS011;18003;-33.830;151.202;2023-01-31T04:03:52;3.25;;;2.25;;
25667;SDS011;18003;-33.830;151.202;2023-01-31T04:06:22;4.53;;;2.40;;
25667;SDS011;18003;-33.830;151.202;2023-01-31T04:08:53;2.67;;;2.30;;
25667;SDS011;18003;-33.830;151.202;2023-01-31T04:11:23;2.87;;;2.30;;
25667;SDS011;18003;-33.830;151.202;2023-01-31T04:13:54;4.20;;;2.50;;
25667;SDS011;18003;-33.830;151.202;2023-01-31T04:16:24;6.03;;;2.60;;
25667;SDS011;18003;-33.830;151.202;2023-01-31T04:18:54;4.60;;;2.80;;
25667;SDS011;18003;-33.830;151.202;2023-01-31T04:21:24;6.75;;;3.22;;
25667;SDS011;18003;-33.830;151.202;2023-01-31T04:23:54;6.67;;;3.17;;
25667;SDS011;18003;-33.830;151.202;2023-01-31T04:26:24;4.65;;;2.95;;
25667;SDS011;18003;-33.830;151.202;2023-01-31T04:28:55;4.67;;;2.92;;
25667;SDS011;18003;-33.830;151.202;2023-01-31T04:31:25;6.90;;;3.00;;
25667;SDS011;18003;-33.830;151.202;2023-01-31T04:33:55;5.47;;;2.90;;
25667;SDS011;18003;-33.830;151.202;2023-01-31T04:36:25;5.47;;;3.58;;
25667;SDS011;18003;-33.830;151.202;2023-01-31T04:38:55;4.47;;;2.55;;
25667;SDS011;18003;-33.830;151.202;2023-01-31T04:41:26;6.62;;;2.45;;
25667;SDS011;18003;-33.830;151.202;2023-01-31T04:43:56;8.45;;;3.22;;
25667;SDS011;18003;-33.830;151.202;2023-01-31T04:46:26;9.83;;;3.37;;
25667;SDS011;18003;-33.830;151.202;2023-01-31T04:48:56;6.37;;;2.65;;
25667;SDS011;18003;-33.830;151.202;2023-01-31T04:51:26;4.47;;;2.40;;
25667;SDS011;18003;-33.830;151.202;2023-01-31T04:53:56;5.33;;;2.45;;
25667;SDS011;18003;-33.830;151.202;2023-01-31T04:56:26;5.10;;;2.25;;
25667;SDS011;18003;-33.830;151.202;2023-01-31T04:58:57;5.33;;;2.45;;
25667;SDS011;18003;-33.830;151.202;2023-01-31T05:01:27;6.72;;;2.60;;
25667;SDS011;18003;-33.830;151.202;2023-01-31T05:03:57;6.55;;;2.52;;
25667;SDS011;18003;-33.830;151.202;2023-01-31T05:06:27;5.53;;;2.52;;
25667;SDS011;18003;-33.830;151.202;2023-01-31T05:08:57;8.03;;;2.75;;
25667;SDS011;18003;-33.830;151.202;2023-01-31T05:11:27;6.40;;;2.65;;
25667;SDS011;18003;-33.830;151.202;2023-01-31T05:13:57;10.55;;;3.70;;
25667;SDS011;18003;-33.830;151.202;2023-01-31T05:16:27;9.28;;;3.40;;
25667;SDS011;18003;-33.830;151.202;2023-01-31T05:18:57;10.65;;;3.35;;
25667;SDS011;18003;-33.830;151.202;2023-01-31T05:21:27;7.33;;;3.30;;
25667;SDS011;18003;-33.830;151.202;2023-01-31T05:23:58;7.62;;;3.42;;
25667;SDS011;18003;-33.830;151.202;2023-01-31T05:26:29;8.48;;;3.27;;
25667;SDS011;18003;-33.830;151.202;2023-01-31T05:28:59;9.95;;;3.20;;
25667;SDS011;18003;-33.830;151.202;2023-01-31T05:31:38;11.03;;;3.72;;
25667;SDS011;18003;-33.830;151.202;2023-01-31T05:34:08;10.75;;;3.85;;
25667;SDS011;18003;-33.830;151.202;2023-01-31T05:36:40;8.20;;;3.77;;
25667;SDS011;18003;-33.830;151.202;2023-01-31T05:39:10;9.90;;;3.57;;
25667;SDS011;18003;-33.830;151.202;2023-01-31T05:41:41;9.60;;;3.55;;
25667;SDS011;18003;-33.830;151.202;2023-01-31T05:44:11;8.65;;;3.70;;
25667;SDS011;18003;-33.830;151.202;2023-01-31T05:46:41;39.00;;;5.60;;
25667;SDS011;18003;-33.830;151.202;2023-01-31T05:49:12;13.43;;;3.40;;
25667;SDS011;18003;-33.830;151.202;2023-01-31T05:51:43;12.63;;;3.67;;
25667;SDS011;18003;-33.830;151.202;2023-01-31T05:54:13;12.10;;;3.97;;
25667;SDS011;18003;-33.830;151.202;2023-01-31T05:56:43;10.03;;;3.58;;
25667;SDS011;18003;-33.830;151.202;2023-01-31T05:59:13;8.93;;;3.17;;
25667;SDS011;18003;-33.830;151.202;2023-01-31T06:01:43;12.75;;;3.52;;
25667;SDS011;18003;-33.830;151.202;2023-01-31T06:04:13;12.70;;;3.47;;
25667;SDS011;18003;-33.830;151.202;2023-01-31T06:06:43;24.47;;;4.12;;
25667;SDS011;18003;-33.830;151.202;2023-01-31T06:09:13;13.10;;;3.92;;
25667;SDS011;18003;-33.830;151.202;2023-01-31T06:11:43;9.43;;;3.22;;
25667;SDS011;18003;-33.830;151.202;2023-01-31T06:14:13;9.33;;;3.25;;
25667;SDS011;18003;-33.830;151.202;2023-01-31T06:16:43;8.13;;;3.17;;
25667;SDS011;18003;-33.830;151.202;2023-01-31T06:19:13;6.53;;;2.52;;
25667;SDS011;18003;-33.830;151.202;2023-01-31T06:21:43;8.43;;;2.90;;
25667;SDS011;18003;-33.830;151.202;2023-01-31T06:24:14;6.28;;;2.95;;
25667;SDS011;18003;-33.830;151.202;2023-01-31T06:26:44;7.92;;;2.92;;
25667;SDS011;18003;-33.830;151.202;2023-01-31T06:29:14;7.30;;;3.00;;
25667;SDS011;18003;-33.830;151.202;2023-01-31T06:31:44;8.78;;;2.92;;
25667;SDS011;18003;-33.830;151.202;2023-01-31T06:34:15;9.90;;;3.40;;
25667;SDS011;18003;-33.830;151.202;2023-01-31T06:36:45;10.58;;;3.17;;
25667;SDS011;18003;-33.830;151.202;2023-01-31T06:39:15;10.00;;;3.50;;
25667;SDS011;18003;-33.830;151.202;2023-01-31T06:41:45;8.28;;;3.50;;
25667;SDS011;18003;-33.830;151.202;2023-01-31T06:44:15;6.47;;;3.27;;
25667;SDS011;18003;-33.830;151.202;2023-01-31T06:46:45;6.85;;;3.37;;
25667;SDS011;18003;-33.830;151.202;2023-01-31T06:49:16;7.70;;;3.40;;
25667;SDS011;18003;-33.830;151.202;2023-01-31T06:51:45;9.83;;;3.42;;
25667;SDS011;18003;-33.830;151.202;2023-01-31T06:54:16;8.05;;;3.60;;
25667;SDS011;18003;-33.830;151.202;2023-01-31T06:56:45;7.45;;;3.10;;
25667;SDS011;18003;-33.830;151.202;2023-01-31T06:59:18;8.68;;;3.02;;
25667;SDS011;18003;-33.830;151.202;2023-01-31T07:01:48;8.65;;;3.00;;
25667;SDS011;18003;-33.830;151.202;2023-01-31T07:04:18;7.75;;;3.55;;
25667;SDS011;18003;-33.830;151.202;2023-01-31T07:06:48;7.50;;;3.27;;
25667;SDS011;18003;-33.830;151.202;2023-01-31T07:09:18;7.35;;;2.70;;
25667;SDS011;18003;-33.830;151.202;2023-01-31T07:11:48;9.40;;;3.17;;
25667;SDS011;18003;-33.830;151.202;2023-01-31T07:14:18;8.73;;;3.02;;
25667;SDS011;18003;-33.830;151.202;2023-01-31T07:16:47;7.33;;;3.25;;
25667;SDS011;18003;-33.830;151.202;2023-01-31T07:19:18;6.20;;;3.37;;
25667;SDS011;18003;-33.830;151.202;2023-01-31T07:21:48;7.12;;;2.70;;
25667;SDS011;18003;-33.830;151.202;2023-01-31T07:24:18;5.77;;;2.93;;
25667;SDS011;18003;-33.830;151.202;2023-01-31T07:26:50;9.48;;;3.20;;
25667;SDS011;18003;-33.830;151.202;2023-01-31T07:29:22;6.30;;;3.10;;
25667;SDS011;18003;-33.830;151.202;2023-01-31T07:31:53;6.92;;;2.90;;
25667;SDS011;18003;-33.830;151.202;2023-01-31T07:34:23;8.33;;;2.80;;
25667;SDS011;18003;-33.830;151.202;2023-01-31T07:36:55;8.10;;;2.80;;
25667;SDS011;18003;-33.830;151.202;2023-01-31T07:39:26;6.35;;;2.90;;
25667;SDS011;18003;-33.830;151.202;2023-01-31T07:41:56;6.50;;;3.15;;
25667;SDS011;18003;-33.830;151.202;2023-01-31T07:44:26;8.73;;;3.10;;
25667;SDS011;18003;-33.830;151.202;2023-01-31T07:46:56;5.83;;;2.47;;
25667;SDS011;18003;-33.830;151.202;2023-01-31T07:49:26;6.20;;;2.42;;
25667;SDS011;18003;-33.830;151.202;2023-01-31T07:51:56;6.80;;;2.72;;
25667;SDS011;18003;-33.830;151.202;2023-01-31T07:54:26;8.00;;;2.67;;
25667;SDS011;18003;-33.830;151.202;2023-01-31T07:56:56;7.87;;;3.08;;
25667;SDS011;18003;-33.830;151.202;2023-01-31T07:59:26;9.03;;;3.20;;
25667;SDS011;18003;-33.830;151.202;2023-01-31T08:01:56;7.90;;;2.85;;
25667;SDS011;18003;-33.830;151.202;2023-01-31T08:04:44;7.55;;;2.87;;
25667;SDS011;18003;-33.830;151.202;2023-01-31T08:07:14;7.63;;;2.83;;
25667;SDS011;18003;-33.830;151.202;2023-01-31T08:09:44;6.37;;;2.50;;
25667;SDS011;18003;-33.830;151.202;2023-01-31T08:12:15;10.03;;;3.00;;
25667;SDS011;18003;-33.830;151.202;2023-01-31T08:14:45;6.35;;;2.52;;
25667;SDS011;18003;-33.830;151.202;2023-01-31T08:17:15;7.65;;;2.62;;
25667;SDS011;18003;-33.830;151.202;2023-01-31T08:19:45;5.62;;;2.33;;
25667;SDS011;18003;-33.830;151.202;2023-01-31T08:22:15;7.50;;;2.50;;
25667;SDS011;18003;-33.830;151.202;2023-01-31T08:24:45;4.80;;;2.52;;
25667;SDS011;18003;-33.830;151.202;2023-01-31T08:27:15;5.08;;;2.55;;
25667;SDS011;18003;-33.830;151.202;2023-01-31T08:29:45;9.23;;;3.35;;
25667;SDS011;18003;-33.830;151.202;2023-01-31T08:32:15;6.50;;;3.27;;
25667;SDS011;18003;-33.830;151.202;2023-01-31T08:34:45;8.73;;;3.25;;
25667;SDS011;18003;-33.830;151.202;2023-01-31T08:37:16;8.48;;;3.22;;
25667;SDS011;18003;-33.830;151.202;2023-01-31T08:39:46;8.53;;;3.22;;
25667;SDS011;18003;-33.830;151.202;2023-01-31T08:42:16;5.67;;;2.62;;
25667;SDS011;18003;-33.830;151.202;2023-01-31T08:44:46;6.42;;;2.35;;
25667;SDS011;18003;-33.830;151.202;2023-01-31T08:47:16;5.30;;;2.30;;
25667;SDS011;18003;-33.830;151.202;2023-01-31T08:49:47;4.85;;;2.22;;
25667;SDS011;18003;-33.830;151.202;2023-01-31T08:52:16;5.65;;;2.08;;
25667;SDS011;18003;-33.830;151.202;2023-01-31T08:54:46;4.10;;;1.80;;
25667;SDS011;18003;-33.830;151.202;2023-01-31T08:57:16;4.37;;;1.85;;
25667;SDS011;18003;-33.830;151.202;2023-01-31T08:59:46;4.75;;;2.15;;
25667;SDS011;18003;-33.830;151.202;2023-01-31T09:02:16;5.87;;;2.15;;
25667;SDS011;18003;-33.830;151.202;2023-01-31T09:04:46;5.17;;;2.08;;
25667;SDS011;18003;-33.830;151.202;2023-01-31T09:07:16;6.45;;;1.98;;
25667;SDS011;18003;-33.830;151.202;2023-01-31T09:09:48;5.33;;;1.80;;
25667;SDS011;18003;-33.830;151.202;2023-01-31T09:12:18;6.37;;;2.10;;
25667;SDS011;18003;-33.830;151.202;2023-01-31T09:14:49;5.65;;;1.85;;
25667;SDS011;18003;-33.830;151.202;2023-01-31T09:17:19;3.98;;;1.75;;
25667;SDS011;18003;-33.830;151.202;2023-01-31T09:19:49;3.05;;;1.47;;
25667;SDS011;18003;-33.830;151.202;2023-01-31T09:22:18;6.90;;;1.95;;
25667;SDS011;18003;-33.830;151.202;2023-01-31T09:24:49;4.45;;;1.60;;
25667;SDS011;18003;-33.830;151.202;2023-01-31T09:27:19;3.70;;;1.40;;
25667;SDS011;18003;-33.830;151.202;2023-01-31T09:29:48;3.95;;;1.60;;
25667;SDS011;18003;-33.830;151.202;2023-01-31T09:32:19;3.95;;;1.57;;
25667;SDS011;18003;-33.830;151.202;2023-01-31T09:34:49;4.37;;;1.80;;
25667;SDS011;18003;-33.830;151.202;2023-01-31T09:37:19;3.85;;;1.70;;
25667;SDS011;18003;-33.830;151.202;2023-01-31T09:39:49;3.98;;;1.45;;
25667;SDS011;18003;-33.830;151.202;2023-01-31T09:45:05;3.42;;;1.70;;
25667;SDS011;18003;-33.830;151.202;2023-01-31T09:47:48;4.70;;;1.50;;
25667;SDS011;18003;-33.830;151.202;2023-01-31T09:52:48;5.20;;;1.70;;
25667;SDS011;18003;-33.830;151.202;2023-01-31T09:58:01;2.72;;;1.42;;
25667;SDS011;18003;-33.830;151.202;2023-01-31T10:00:39;4.28;;;1.67;;
25667;SDS011;18003;-33.830;151.202;2023-01-31T10:11:21;5.90;;;1.60;;
25667;SDS011;18003;-33.830;151.202;2023-01-31T10:13:52;5.20;;;1.47;;
25667;SDS011;18003;-33.830;151.202;2023-01-31T10:18:56;4.05;;;1.50;;
25667;SDS011;18003;-33.830;151.202;2023-01-31T10:21:29;5.55;;;1.85;;
25667;SDS011;18003;-33.830;151.202;2023-01-31T10:24:45;5.22;;;1.60;;
25667;SDS011;18003;-33.830;151.202;2023-01-31T10:26:35;3.58;;;1.60;;
25667;SDS011;18003;-33.830;151.202;2023-01-31T10:29:12;4.25;;;1.80;;
25667;SDS011;18003;-33.830;151.202;2023-01-31T10:39:47;5.37;;;1.60;;
25667;SDS011;18003;-33.830;151.202;2023-01-31T10:42:22;2.55;;;1.42;;
25667;SDS011;18003;-33.830;151.202;2023-01-31T10:45:05;6.15;;;1.55;;
25667;SDS011;18003;-33.830;151.202;2023-01-31T10:47:40;6.25;;;1.62;;
25667;SDS011;18003;-33.830;151.202;2023-01-31T10:50:24;4.87;;;1.55;;
25667;SDS011;18003;-33.830;151.202;2023-01-31T10:53:44;3.55;;;1.70;;
25667;SDS011;18003;-33.830;151.202;2023-01-31T10:55:48;4.17;;;1.70;;
25667;SDS011;18003;-33.830;151.202;2023-01-31T10:58:18;4.42;;;1.70;;
25667;SDS011;18003;-33.830;151.202;2023-01-31T11:00:49;6.62;;;1.75;;
25667;SDS011;18003;-33.830;151.202;2023-01-31T11:03:20;4.60;;;1.60;;
25667;SDS011;18003;-33.830;151.202;2023-01-31T11:05:51;5.67;;;1.82;;
25667;SDS011;18003;-33.830;151.202;2023-01-31T11:09:08;6.03;;;1.85;;
25667;SDS011;18003;-33.830;151.202;2023-01-31T11:11:07;5.83;;;1.90;;
25667;SDS011;18003;-33.830;151.202;2023-01-31T11:13:38;7.15;;;2.10;;
25667;SDS011;18003;-33.830;151.202;2023-01-31T11:16:11;6.03;;;1.92;;
25667;SDS011;18003;-33.830;151.202;2023-01-31T11:18:42;5.50;;;2.02;;
25667;SDS011;18003;-33.830;151.202;2023-01-31T11:21:23;4.70;;;2.08;;
25667;SDS011;18003;-33.830;151.202;2023-01-31T11:23:59;6.67;;;2.30;;
25667;SDS011;18003;-33.830;151.202;2023-01-31T11:26:37;5.12;;;1.67;;
25667;SDS011;18003;-33.830;151.202;2023-01-31T11:29:07;4.45;;;1.90;;
25667;SDS011;18003;-33.830;151.202;2023-01-31T11:31:39;4.92;;;1.72;;
25667;SDS011;18003;-33.830;151.202;2023-01-31T11:34:32;7.22;;;2.20;;
25667;SDS011;18003;-33.830;151.202;2023-01-31T11:36:51;5.80;;;1.98;;
25667;SDS011;18003;-33.830;151.202;2023-01-31T11:39:29;3.58;;;1.75;;
25667;SDS011;18003;-33.830;151.202;2023-01-31T11:42:16;6.97;;;2.25;;
25667;SDS011;18003;-33.830;151.202;2023-01-31T11:44:56;6.90;;;2.08;;
25667;SDS011;18003;-33.830;151.202;2023-01-31T11:47:48;8.15;;;2.20;;
25667;SDS011;18003;-33.830;151.202;2023-01-31T11:50:26;8.80;;;1.95;;
25667;SDS011;18003;-33.830;151.202;2023-01-31T11:53:03;6.80;;;1.85;;
25667;SDS011;18003;-33.830;151.202;2023-01-31T11:55:35;7.15;;;1.90;;
25667;SDS011;18003;-33.830;151.202;2023-01-31T11:58:21;4.95;;;2.00;;
25667;SDS011;18003;-33.830;151.202;2023-01-31T12:03:27;6.58;;;2.10;;
25667;SDS011;18003;-33.830;151.202;2023-01-31T12:06:02;6.75;;;1.90;;
25667;SDS011;18003;-33.830;151.202;2023-01-31T12:08:31;3.90;;;1.60;;
25667;SDS011;18003;-33.830;151.202;2023-01-31T12:11:25;4.95;;;2.05;;
25667;SDS011;18003;-33.830;151.202;2023-01-31T12:13:50;8.98;;;1.92;;
25667;SDS011;18003;-33.830;151.202;2023-01-31T12:16:24;9.85;;;2.22;;
25667;SDS011;18003;-33.830;151.202;2023-01-31T12:22:00;6.20;;;1.95;;
25667;SDS011;18003;-33.830;151.202;2023-01-31T12:30:23;5.67;;;1.80;;
25667;SDS011;18003;-33.830;151.202;2023-01-31T12:33:08;6.95;;;1.90;;
25667;SDS011;18003;-33.830;151.202;2023-01-31T12:41:40;7.20;;;2.17;;
25667;SDS011;18003;-33.830;151.202;2023-01-31T12:44:30;5.47;;;2.00;;
25667;SDS011;18003;-33.830;151.202;2023-01-31T12:55:27;4.97;;;2.17;;
25667;SDS011;18003;-33.830;151.202;2023-01-31T12:58:03;3.62;;;2.00;;
25667;SDS011;18003;-33.830;151.202;2023-01-31T13:00:38;3.42;;;1.90;;
25667;SDS011;18003;-33.830;151.202;2023-01-31T13:03:26;4.10;;;2.10;;
25667;SDS011;18003;-33.830;151.202;2023-01-31T13:06:17;4.75;;;2.00;;
25667;SDS011;18003;-33.830;151.202;2023-01-31T13:09:04;4.20;;;2.20;;
25667;SDS011;18003;-33.830;151.202;2023-01-31T13:11:26;4.58;;;2.00;;
25667;SDS011;18003;-33.830;151.202;2023-01-31T13:13:56;4.40;;;1.85;;
25667;SDS011;18003;-33.830;151.202;2023-01-31T13:16:34;3.40;;;1.60;;
25667;SDS011;18003;-33.830;151.202;2023-01-31T13:19:06;4.45;;;1.80;;
25667;SDS011;18003;-33.830;151.202;2023-01-31T13:21:50;4.20;;;1.85;;
25667;SDS011;18003;-33.830;151.202;2023-01-31T13:24:21;3.40;;;2.12;;
25667;SDS011;18003;-33.830;151.202;2023-01-31T13:27:02;3.87;;;2.10;;
25667;SDS011;18003;-33.830;151.202;2023-01-31T13:29:29;4.85;;;1.82;;
25667;SDS011;18003;-33.830;151.202;2023-01-31T13:32:17;3.47;;;1.80;;
25667;SDS011;18003;-33.830;151.202;2023-01-31T13:37:34;3.47;;;1.80;;
25667;SDS011;18003;-33.830;151.202;2023-01-31T13:40:18;4.30;;;1.85;;
25667;SDS011;18003;-33.830;151.202;2023-01-31T13:42:49;4.75;;;1.80;;
25667;SDS011;18003;-33.830;151.202;2023-01-31T13:45:32;3.80;;;1.70;;
25667;SDS011;18003;-33.830;151.202;2023-01-31T13:48:15;2.72;;;1.55;;
25667;SDS011;18003;-33.830;151.202;2023-01-31T13:50:40;2.95;;;1.67;;
25667;SDS011;18003;-33.830;151.202;2023-01-31T13:53:15;4.90;;;1.90;;
25667;SDS011;18003;-33.830;151.202;2023-01-31T13:55:46;3.45;;;1.50;;
25667;SDS011;18003;-33.830;151.202;2023-01-31T13:58:21;3.02;;;1.60;;
25667;SDS011;18003;-33.830;151.202;2023-01-31T14:00:56;3.62;;;1.62;;
25667;SDS011;18003;-33.830;151.202;2023-01-31T14:03:27;3.58;;;1.87;;
25667;SDS011;18003;-33.830;151.202;2023-01-31T14:05:58;4.78;;;1.82;;
25667;SDS011;18003;-33.830;151.202;2023-01-31T14:08:55;3.35;;;1.95;;
25667;SDS011;18003;-33.830;151.202;2023-01-31T14:11:54;3.62;;;1.80;;
25667;SDS011;18003;-33.830;151.202;2023-01-31T14:13:50;3.37;;;1.60;;
25667;SDS011;18003;-33.830;151.202;2023-01-31T14:22:34;3.50;;;1.50;;
25667;SDS011;18003;-33.830;151.202;2023-01-31T14:27:21;3.98;;;1.90;;
25667;SDS011;18003;-33.830;151.202;2023-01-31T14:32:34;3.75;;;1.70;;
25667;SDS011;18003;-33.830;151.202;2023-01-31T14:45:51;4.42;;;1.90;;
25667;SDS011;18003;-33.830;151.202;2023-01-31T14:56:50;4.75;;;1.80;;
25667;SDS011;18003;-33.830;151.202;2023-01-31T14:59:33;3.72;;;1.90;;
25667;SDS011;18003;-33.830;151.202;2023-01-31T15:02:20;5.17;;;1.85;;
25667;SDS011;18003;-33.830;151.202;2023-01-31T15:07:32;3.95;;;2.00;;
25667;SDS011;18003;-33.830;151.202;2023-01-31T15:10:03;4.33;;;1.82;;
25667;SDS011;18003;-33.830;151.202;2023-01-31T15:12:52;5.08;;;1.90;;
25667;SDS011;18003;-33.830;151.202;2023-01-31T15:15:30;4.42;;;2.17;;
25667;SDS011;18003;-33.830;151.202;2023-01-31T15:18:01;2.58;;;1.65;;
25667;SDS011;18003;-33.830;151.202;2023-01-31T15:20:41;5.53;;;1.98;;
25667;SDS011;18003;-33.830;151.202;2023-01-31T15:23:17;2.93;;;1.80;;
25667;SDS011;18003;-33.830;151.202;2023-01-31T15:25:50;2.35;;;1.75;;
25667;SDS011;18003;-33.830;151.202;2023-01-31T15:28:24;2.55;;;1.77;;
25667;SDS011;18003;-33.830;151.202;2023-01-31T15:30:59;2.85;;;1.62;;
25667;SDS011;18003;-33.830;151.202;2023-01-31T15:33:41;2.92;;;1.70;;
25667;SDS011;18003;-33.830;151.202;2023-01-31T15:43:51;5.47;;;1.90;;
25667;SDS011;18003;-33.830;151.202;2023-01-31T15:46:29;4.45;;;1.70;;
25667;SDS011;18003;-33.830;151.202;2023-01-31T15:49:01;4.17;;;1.77;;
25667;SDS011;18003;-33.830;151.202;2023-01-31T15:51:32;4.55;;;2.12;;
25667;SDS011;18003;-33.830;151.202;2023-01-31T15:54:03;5.50;;;2.02;;
25667;SDS011;18003;-33.830;151.202;2023-01-31T15:56:35;3.95;;;1.90;;
25667;SDS011;18003;-33.830;151.202;2023-01-31T15:59:09;4.20;;;2.10;;
25667;SDS011;18003;-33.830;151.202;2023-01-31T16:01:45;5.33;;;1.80;;
25667;SDS011;18003;-33.830;151.202;2023-01-31T16:04:15;3.30;;;1.67;;
25667;SDS011;18003;-33.830;151.202;2023-01-31T16:06:45;4.25;;;2.02;;
25667;SDS011;18003;-33.830;151.202;2023-01-31T16:09:23;2.90;;;1.50;;
25667;SDS011;18003;-33.830;151.202;2023-01-31T16:11:54;2.75;;;1.50;;
25667;SDS011;18003;-33.830;151.202;2023-01-31T16:14:25;2.33;;;1.60;;
25667;SDS011;18003;-33.830;151.202;2023-01-31T16:16:56;3.62;;;2.02;;
25667;SDS011;18003;-33.830;151.202;2023-01-31T16:19:34;5.10;;;1.47;;
25667;SDS011;18003;-33.830;151.202;2023-01-31T16:22:01;4.33;;;1.60;;
25667;SDS011;18003;-33.830;151.202;2023-01-31T16:24:32;3.35;;;1.60;;
25667;SDS011;18003;-33.830;151.202;2023-01-31T16:27:05;3.80;;;1.95;;
25667;SDS011;18003;-33.830;151.202;2023-01-31T16:34:55;4.40;;;1.80;;
25667;SDS011;18003;-33.830;151.202;2023-01-31T16:37:39;3.90;;;1.60;;
25667;SDS011;18003;-33.830;151.202;2023-01-31T16:40:24;3.37;;;1.40;;
25667;SDS011;18003;-33.830;151.202;2023-01-31T16:43:07;2.95;;;1.60;;
25667;SDS011;18003;-33.830;151.202;2023-01-31T16:45:29;4.03;;;1.52;;
25667;SDS011;18003;-33.830;151.202;2023-01-31T16:48:23;2.65;;;1.30;;
25667;SDS011;18003;-33.830;151.202;2023-01-31T16:50:38;2.37;;;1.65;;
25667;SDS011;18003;-33.830;151.202;2023-01-31T16:53:16;4.50;;;1.70;;
25667;SDS011;18003;-33.830;151.202;2023-01-31T16:58:48;2.52;;;1.50;;
25667;SDS011;18003;-33.830;151.202;2023-01-31T17:01:29;4.00;;;1.72;;